Time;durP1;ratioP1;P1;durP2;ratioP2;P2;SDS_P1;SDS_P2;PMS_P1;PMS_P2;Temp;Humidity;BMP_temperature;BMP_pressure;BME280_temperature;BME280_humidity;BME280_pressure;Samples;Min_cycle;Max_cycle;Signal;HPM_P1;HPM_P2
2021/12/10 00:01:30;;;;;;;80.13;34.67;;;1.20;99.90;;;;;;5117022;28;20456;-68
2021/12/10 00:03:58;;;;;;;75.07;37.63;;;1.30;99.90;;;;;;5117489;28;20445;-68
2021/12/10 00:06:29;;;;;;;69.17;36.67;;;1.40;99.90;;;;;;5117698;28;20452;-68
2021/12/10 00:09:00;;;;;;;70.87;35.90;;;1.50;99.90;;;;;;5117414;28;20436;-68
2021/12/10 00:11:30;;;;;;;69.80;33.70;;;1.50;99.90;;;;;;5117582;27;20472;-68
2021/12/10 00:13:58;;;;;;;70.63;35.77;;;1.50;99.90;;;;;;5117352;28;20452;-68
2021/12/10 00:16:25;;;;;;;78.43;36.77;;;1.60;99.90;;;;;;5117144;28;20457;-68
2021/12/10 00:18:57;;;;;;;64.80;35.37;;;1.70;99.90;;;;;;5116893;28;20519;-68
2021/12/10 00:21:29;;;;;;;71.90;35.50;;;1.70;99.90;;;;;;5116839;28;20541;-67
2021/12/10 00:23:57;;;;;;;80.90;36.77;;;1.70;99.90;;;;;;5117515;28;20456;-67
2021/12/10 00:26:24;;;;;;;77.30;35.20;;;1.60;99.90;;;;;;5117034;28;20738;-67
2021/12/10 00:28:52;;;;;;;79.67;37.03;;;1.60;99.90;;;;;;5116948;28;20776;-67
2021/12/10 00:31:32;;;;;;;74.47;38.10;;;1.70;99.90;;;;;;5116916;28;20460;-67
2021/12/10 00:34:04;;;;;;;74.33;36.50;;;1.70;99.90;;;;;;5116535;28;20472;-67
2021/12/10 00:36:33;;;;;;;72.37;34.03;;;1.60;99.90;;;;;;5116793;28;20437;-68
2021/12/10 00:39:03;;;;;;;76.47;37.20;;;1.50;99.90;;;;;;5117083;28;20476;-67
2021/12/10 00:41:30;;;;;;;73.10;36.67;;;1.50;99.90;;;;;;5116810;28;20461;-67
2021/12/10 00:43:58;;;;;;;71.50;35.90;;;1.50;99.90;;;;;;5116451;28;20529;-66
2021/12/10 00:46:25;;;;;;;73.07;35.90;;;1.50;99.90;;;;;;5116878;28;20456;-67
2021/12/10 00:48:52;;;;;;;82.60;37.10;;;1.60;99.90;;;;;;5116773;28;20740;-67
2021/12/10 00:51:19;;;;;;;73.90;35.07;;;1.50;99.90;;;;;;5117369;28;20550;-67
2021/12/10 00:53:47;;;;;;;78.47;36.47;;;1.50;99.90;;;;;;5116587;28;20789;-68
2021/12/10 00:56:16;;;;;;;81.27;37.43;;;1.50;99.90;;;;;;5117164;28;20461;-68
2021/12/10 00:58:45;;;;;;;76.10;35.60;;;1.60;99.90;;;;;;5116587;28;20472;-68
2021/12/10 01:01:16;;;;;;;81.57;36.07;;;1.50;99.90;;;;;;5115619;28;20452;-68
2021/12/10 01:03:47;;;;;;;86.77;40.07;;;1.40;99.90;;;;;;5116696;28;20437;-67
2021/12/10 01:06:17;;;;;;;75.83;39.63;;;1.20;99.90;;;;;;5117043;28;20490;-68
2021/12/10 01:08:50;;;;;;;76.03;37.07;;;1.00;99.90;;;;;;5117741;28;20508;-67
2021/12/10 01:11:22;;;;;;;98.90;40.17;;;0.90;99.90;;;;;;5117116;28;20490;-68
2021/12/10 01:13:53;;;;;;;78.40;37.60;;;0.90;99.90;;;;;;5116900;28;20441;-68
2021/12/10 01:25:04;;;;;;;79.07;37.27;;;0.60;99.90;;;;;;5116616;28;20910;-66
2021/12/10 01:27:36;;;;;;;92.27;38.07;;;0.60;99.90;;;;;;5115829;28;20881;-67
2021/12/10 01:30:09;;;;;;;79.67;36.77;;;0.60;99.90;;;;;;5115581;28;20437;-68
2021/12/10 01:32:41;;;;;;;87.60;37.83;;;0.70;99.90;;;;;;5115887;28;20440;-68
2021/12/10 01:35:10;;;;;;;85.07;40.07;;;0.60;99.90;;;;;;5115179;28;20460;-67
2021/12/10 01:37:37;;;;;;;78.70;35.60;;;0.60;99.90;;;;;;5115460;28;20456;-67
2021/12/10 01:40:07;;;;;;;80.20;39.07;;;0.60;99.90;;;;;;5115408;28;20483;-68
2021/12/10 01:42:43;;;;;;;98.90;40.00;;;0.60;99.90;;;;;;5115425;28;20916;-67
2021/12/10 01:45:19;;;;;;;88.67;38.97;;;0.60;99.90;;;;;;5115680;28;20433;-68
2021/12/10 01:47:47;;;;;;;85.50;39.03;;;0.60;99.90;;;;;;5115709;28;20443;-68
2021/12/10 01:50:15;;;;;;;83.90;39.60;;;0.60;99.90;;;;;;5115396;28;20459;-68
2021/12/10 01:52:43;;;;;;;104.53;41.37;;;0.60;99.90;;;;;;5115656;28;20443;-66
2021/12/10 01:55:11;;;;;;;88.63;38.77;;;0.60;99.90;;;;;;5115842;28;20459;-68
2021/12/10 01:57:39;;;;;;;85.00;39.87;;;0.60;99.90;;;;;;5115412;28;20466;-67
2021/12/10 02:00:09;;;;;;;81.20;37.97;;;0.70;99.90;;;;;;5115145;28;20566;-68
2021/12/10 02:02:40;;;;;;;83.97;39.63;;;0.70;99.90;;;;;;5115490;28;20437;-68
2021/12/10 02:05:08;;;;;;;87.53;39.50;;;0.70;99.90;;;;;;5114860;28;20437;-67
2021/12/10 02:07:34;;;;;;;95.77;41.30;;;0.60;99.90;;;;;;5115199;28;20908;-67
2021/12/10 02:10:01;;;;;;;92.67;39.93;;;0.60;99.90;;;;;;5115286;28;20448;-67
2021/12/10 02:12:28;;;;;;;94.70;40.93;;;0.70;99.90;;;;;;5114931;28;20480;-68
2021/12/10 02:15:01;;;;;;;95.87;38.50;;;0.70;99.90;;;;;;5115132;28;20467;-67
2021/12/10 02:17:31;;;;;;;83.90;37.43;;;0.80;99.90;;;;;;5115891;28;20437;-68
2021/12/10 02:20:01;;;;;;;81.67;38.77;;;0.80;99.90;;;;;;5114987;28;20476;-68
2021/12/10 02:22:29;;;;;;;89.90;39.30;;;0.80;99.90;;;;;;5115203;28;20544;-68
2021/12/10 02:24:56;;;;;;;85.07;39.27;;;0.90;99.90;;;;;;5115092;28;20467;-67
2021/12/10 02:27:23;;;;;;;93.83;39.23;;;0.90;99.90;;;;;;5115061;28;20456;-67
2021/12/10 02:29:49;;;;;;;80.07;38.30;;;0.90;99.90;;;;;;5115138;28;20456;-67
2021/12/10 02:32:16;;;;;;;83.57;39.53;;;0.80;99.90;;;;;;5114790;28;20468;-68
2021/12/10 02:34:44;;;;;;;82.53;38.50;;;0.80;99.90;;;;;;5114900;28;20529;-67
2021/12/10 02:37:11;;;;;;;85.73;42.00;;;0.80;99.90;;;;;;5114830;28;20491;-68
2021/12/10 02:39:39;;;;;;;89.00;39.27;;;0.70;99.90;;;;;;5114672;28;20480;-67
2021/12/10 02:42:06;;;;;;;87.53;39.90;;;0.70;99.90;;;;;;5114523;28;20461;-68
2021/12/10 02:44:34;;;;;;;83.80;38.57;;;0.70;99.90;;;;;;5114545;28;20480;-68
2021/12/10 02:47:01;;;;;;;97.77;41.57;;;0.70;99.90;;;;;;5114866;28;20556;-67
2021/12/10 02:49:29;;;;;;;96.50;39.17;;;0.80;99.90;;;;;;5114786;28;20444;-68
2021/12/10 02:51:56;;;;;;;80.63;39.50;;;0.90;99.90;;;;;;5114196;28;20913;-67
2021/12/10 02:54:33;;;;;;;99.17;41.30;;;1.00;99.90;;;;;;5114781;28;20452;-67
2021/12/10 02:57:02;;;;;;;94.90;39.80;;;0.90;99.90;;;;;;5114661;28;20476;-67
2021/12/10 02:59:29;;;;;;;80.20;39.00;;;0.90;99.90;;;;;;5114747;28;20480;-67
2021/12/10 03:01:57;;;;;;;81.17;40.10;;;0.90;99.90;;;;;;5114603;28;20456;-67
2021/12/10 03:04:24;;;;;;;85.10;39.07;;;0.90;99.90;;;;;;5114595;28;20458;-68
2021/12/10 03:06:55;;;;;;;92.50;38.47;;;1.00;99.90;;;;;;5114724;28;20467;-67
2021/12/10 03:09:23;;;;;;;99.47;40.47;;;1.00;99.90;;;;;;5114724;28;20433;-67
2021/12/10 03:11:52;;;;;;;78.90;35.87;;;1.10;99.90;;;;;;5114392;28;20482;-68
2021/12/10 03:14:23;;;;;;;86.67;40.00;;;1.10;99.90;;;;;;5114785;28;20487;-68
2021/12/10 03:16:52;;;;;;;92.27;40.97;;;1.10;99.90;;;;;;5114504;28;20499;-68
2021/12/10 03:19:19;;;;;;;81.30;37.50;;;1.00;99.90;;;;;;5114771;28;20472;-67
2021/12/10 03:21:47;;;;;;;83.23;39.20;;;1.00;99.90;;;;;;5114281;28;20453;-67
2021/12/10 03:24:15;;;;;;;82.03;37.30;;;1.00;99.90;;;;;;5115925;28;20464;-67
2021/12/10 03:26:42;;;;;;;91.93;40.20;;;1.10;99.90;;;;;;5118440;28;20467;-68
2021/12/10 03:29:09;;;;;;;87.20;39.70;;;1.00;99.90;;;;;;5118585;28;20456;-68
2021/12/10 03:31:38;;;;;;;75.27;37.10;;;1.10;99.90;;;;;;5118227;28;20467;-68
2021/12/10 03:34:06;;;;;;;85.87;38.20;;;1.10;99.90;;;;;;5118111;28;20519;-67
2021/12/10 03:36:33;;;;;;;89.17;41.70;;;1.20;99.90;;;;;;5118559;28;20460;-69
2021/12/10 03:39:01;;;;;;;84.57;38.73;;;1.20;99.90;;;;;;5117777;27;20480;-67
2021/12/10 03:41:28;;;;;;;86.40;38.80;;;1.20;99.90;;;;;;5117987;28;20467;-68
2021/12/10 03:43:55;;;;;;;96.03;41.03;;;1.30;99.90;;;;;;5117525;28;20487;-67
2021/12/10 03:46:23;;;;;;;89.80;41.47;;;1.30;99.90;;;;;;5117717;28;20456;-67
2021/12/10 03:48:52;;;;;;;88.27;41.53;;;1.40;99.90;;;;;;5118172;28;20480;-67
2021/12/10 03:51:21;;;;;;;82.93;37.77;;;1.30;99.90;;;;;;5117770;28;20456;-67
2021/12/10 03:53:49;;;;;;;86.07;38.07;;;1.20;99.90;;;;;;5117679;28;20464;-67
2021/12/10 03:56:19;;;;;;;89.27;38.77;;;1.10;99.90;;;;;;5117906;28;20785;-67
2021/12/10 03:58:48;;;;;;;79.87;38.90;;;1.10;99.90;;;;;;5117391;28;20451;-67
2021/12/10 04:01:19;;;;;;;86.13;39.30;;;1.20;99.90;;;;;;5117416;28;20452;-68
2021/12/10 04:03:49;;;;;;;80.97;38.80;;;1.20;99.90;;;;;;5117433;28;20433;-67
2021/12/10 04:06:17;;;;;;;84.73;38.10;;;1.30;99.90;;;;;;5117427;28;20456;-67
2021/12/10 04:08:44;;;;;;;78.33;35.90;;;1.30;99.90;;;;;;5117405;28;20459;-67
2021/12/10 04:11:15;;;;;;;86.10;38.43;;;1.40;99.90;;;;;;5116842;28;20452;-68
2021/12/10 04:13:42;;;;;;;76.50;38.37;;;1.50;99.90;;;;;;5117429;27;20440;-67
2021/12/10 04:16:09;;;;;;;79.00;37.27;;;1.50;99.90;;;;;;5116967;28;20792;-67
2021/12/10 04:18:37;;;;;;;82.70;37.60;;;1.60;99.90;;;;;;5117197;28;20796;-67
2021/12/10 04:21:05;;;;;;;76.87;36.70;;;1.70;99.90;;;;;;5117220;28;20480;-67
2021/12/10 04:23:33;;;;;;;77.43;36.80;;;1.70;99.90;;;;;;5116724;28;20521;-68
2021/12/10 04:26:00;;;;;;;76.80;37.23;;;1.70;99.90;;;;;;5116871;28;20456;-67
2021/12/10 04:28:28;;;;;;;66.00;36.03;;;1.80;99.90;;;;;;5116413;28;20517;-67
2021/12/10 04:30:57;;;;;;;76.13;37.17;;;1.80;99.90;;;;;;5117164;28;20452;-67
2021/12/10 04:33:27;;;;;;;68.27;34.10;;;1.80;99.90;;;;;;5116920;28;20467;-67
2021/12/10 04:35:57;;;;;;;72.40;36.37;;;1.80;99.90;;;;;;5115741;27;20467;-67
2021/12/10 04:38:26;;;;;;;82.50;37.10;;;1.80;99.90;;;;;;5116537;28;20452;-67
2021/12/10 04:41:01;;;;;;;74.00;34.20;;;1.70;99.90;;;;;;5116629;28;20476;-67
2021/12/10 04:43:29;;;;;;;80.00;36.10;;;1.70;99.90;;;;;;5116880;28;20484;-68
2021/12/10 04:45:57;;;;;;;81.10;36.60;;;1.70;99.90;;;;;;5116927;28;20785;-68
2021/12/10 04:48:24;;;;;;;75.40;37.40;;;1.70;99.90;;;;;;5116603;28;20460;-68
2021/12/10 04:50:52;;;;;;;76.10;38.30;;;1.70;99.90;;;;;;5116556;28;20452;-70
2021/12/10 04:53:19;;;;;;;78.17;39.27;;;1.70;99.90;;;;;;5116370;28;20463;-69
2021/12/10 04:55:48;;;;;;;83.10;37.03;;;1.80;99.90;;;;;;5116257;28;20892;-67
2021/12/10 04:58:17;;;;;;;81.37;38.40;;;1.80;99.90;;;;;;5116312;28;20452;-69
2021/12/10 05:00:47;;;;;;;83.83;40.03;;;1.80;99.90;;;;;;5116644;28;20486;-68
2021/12/10 05:03:15;;;;;;;80.13;38.70;;;1.90;99.90;;;;;;5116597;28;20780;-68
2021/12/10 05:05:44;;;;;;;83.00;38.67;;;1.90;99.90;;;;;;5116493;28;20470;-69
2021/12/10 05:08:12;;;;;;;79.27;41.37;;;2.00;99.90;;;;;;5116241;28;20932;-67
2021/12/10 05:10:39;;;;;;;77.10;39.23;;;2.00;99.90;;;;;;5116405;28;20463;-68
2021/12/10 05:13:07;;;;;;;66.83;35.13;;;2.00;99.90;;;;;;5115983;28;20932;-68
2021/12/10 05:15:38;;;;;;;85.20;39.40;;;2.00;99.90;;;;;;5116286;28;20452;-68
2021/12/10 05:18:06;;;;;;;82.93;40.10;;;2.00;99.90;;;;;;5116268;28;20441;-69
2021/12/10 05:20:36;;;;;;;79.80;38.83;;;1.90;99.90;;;;;;5115959;28;20488;-68
2021/12/10 05:23:04;;;;;;;85.83;38.60;;;1.90;99.90;;;;;;5116232;28;20991;-68
2021/12/10 05:25:32;;;;;;;84.90;41.23;;;1.70;99.90;;;;;;5115865;28;20551;-68
2021/12/10 05:28:00;;;;;;;83.77;40.17;;;1.60;99.90;;;;;;5116345;28;20553;-68
2021/12/10 05:30:31;;;;;;;85.13;39.20;;;1.50;99.90;;;;;;5116508;28;20467;-68
2021/12/10 05:33:02;;;;;;;81.07;39.47;;;1.50;99.90;;;;;;5115861;28;20444;-68
2021/12/10 05:35:29;;;;;;;91.47;42.10;;;1.40;99.90;;;;;;5115441;28;20885;-68
2021/12/10 05:37:56;;;;;;;93.40;42.17;;;1.40;99.90;;;;;;5115670;28;20456;-68
2021/12/10 05:40:23;;;;;;;102.07;41.20;;;1.30;99.90;;;;;;5115859;28;20785;-68
2021/12/10 05:42:50;;;;;;;82.50;40.03;;;1.30;99.90;;;;;;5115419;28;20456;-69
2021/12/10 05:45:19;;;;;;;83.03;39.50;;;1.20;99.90;;;;;;5115186;28;20897;-69
2021/12/10 05:47:47;;;;;;;85.60;40.70;;;1.20;99.90;;;;;;5115572;28;20833;-68
2021/12/10 05:50:19;;;;;;;87.93;39.40;;;1.20;99.90;;;;;;5115297;28;20444;-69
2021/12/10 05:52:46;;;;;;;80.80;38.90;;;1.30;99.90;;;;;;5115543;28;20437;-69
2021/12/10 05:55:13;;;;;;;90.37;40.50;;;1.30;99.90;;;;;;5115655;28;20471;-69
2021/12/10 05:57:40;;;;;;;77.27;39.17;;;1.20;99.90;;;;;;5115224;28;20818;-69
2021/12/10 06:00:12;;;;;;;93.93;42.43;;;1.20;99.90;;;;;;5115290;28;20484;-68
2021/12/10 06:02:39;;;;;;;88.63;41.37;;;1.10;99.90;;;;;;5115456;28;20961;-68
2021/12/10 06:05:08;;;;;;;109.00;50.50;;;1.10;99.90;;;;;;5115223;28;20826;-68
2021/12/10 06:07:36;;;;;;;91.93;41.30;;;1.20;99.90;;;;;;5115307;28;20452;-68
2021/12/10 06:10:05;;;;;;;86.50;39.07;;;1.20;99.90;;;;;;5114941;28;20903;-69
2021/12/10 06:12:31;;;;;;;88.27;41.13;;;1.30;99.90;;;;;;5115242;28;21005;-68
2021/12/10 06:14:59;;;;;;;95.77;41.03;;;1.40;99.90;;;;;;5115064;28;20456;-69
2021/12/10 06:17:25;;;;;;;91.77;41.70;;;1.40;99.90;;;;;;5114881;28;20456;-68
2021/12/10 06:19:52;;;;;;;99.90;40.87;;;1.30;99.90;;;;;;5114784;28;20549;-69
2021/12/10 06:22:19;;;;;;;96.10;45.83;;;1.30;99.90;;;;;;5115038;28;20452;-68
2021/12/10 06:24:47;;;;;;;90.53;41.20;;;1.30;99.90;;;;;;5114721;28;20453;-68
2021/12/10 06:27:14;;;;;;;89.60;41.07;;;1.30;99.90;;;;;;5115863;28;20456;-68
2021/12/10 06:29:42;;;;;;;88.23;40.90;;;1.40;99.90;;;;;;5114702;28;20456;-68
2021/12/10 06:32:12;;;;;;;87.30;42.87;;;1.40;99.90;;;;;;5114590;28;20456;-69
2021/12/10 06:34:39;;;;;;;104.37;45.83;;;1.40;99.90;;;;;;5114541;28;20517;-69
2021/12/10 06:37:07;;;;;;;89.60;41.47;;;1.40;99.90;;;;;;5114947;28;20464;-69
2021/12/10 06:39:34;;;;;;;104.63;42.93;;;1.40;99.90;;;;;;5115210;28;20464;-68
2021/12/10 06:42:03;;;;;;;99.83;41.40;;;1.40;99.90;;;;;;5114756;28;20456;-69
2021/12/10 06:44:31;;;;;;;104.00;44.77;;;1.40;99.90;;;;;;5114920;28;20540;-69
2021/12/10 06:46:58;;;;;;;106.33;41.80;;;1.30;99.90;;;;;;5115002;28;20542;-69
2021/12/10 06:49:24;;;;;;;97.03;44.87;;;1.30;99.90;;;;;;5114690;28;20456;-69
2021/12/10 06:51:52;;;;;;;83.90;43.37;;;1.30;99.90;;;;;;5114852;28;20457;-68
2021/12/10 06:54:21;;;;;;;105.33;44.43;;;1.40;99.90;;;;;;5114568;28;20460;-69
2021/12/10 06:56:48;;;;;;;91.70;42.37;;;1.50;99.90;;;;;;5114895;28;20467;-69
2021/12/10 06:59:16;;;;;;;95.00;44.13;;;1.50;99.90;;;;;;5116323;28;20486;-68
2021/12/10 07:01:44;;;;;;;95.40;42.80;;;1.50;99.90;;;;;;5118252;28;20471;-68
2021/12/10 07:04:13;;;;;;;82.47;41.80;;;1.50;99.90;;;;;;5119309;28;20495;-67
2021/12/10 07:06:42;;;;;;;100.13;45.07;;;1.60;99.90;;;;;;5118573;28;20484;-68
2021/12/10 07:09:13;;;;;;;89.57;42.20;;;1.70;99.90;;;;;;5118853;28;20453;-69
2021/12/10 07:11:41;;;;;;;95.77;41.47;;;1.60;99.90;;;;;;5118930;28;20443;-68
2021/12/10 07:14:08;;;;;;;90.83;40.63;;;1.60;99.90;;;;;;5118982;28;20752;-69
2021/12/10 07:16:37;;;;;;;94.63;43.13;;;1.60;99.90;;;;;;5119017;28;20459;-67
2021/12/10 07:19:06;;;;;;;102.57;42.77;;;1.60;99.90;;;;;;5119028;28;20528;-68
2021/12/10 07:21:34;;;;;;;101.30;42.80;;;1.70;99.90;;;;;;5118536;28;20480;-68
2021/12/10 07:24:03;;;;;;;91.63;42.80;;;1.70;99.90;;;;;;5118508;28;20789;-69
2021/12/10 07:26:31;;;;;;;97.70;42.83;;;1.70;99.90;;;;;;5118508;28;20517;-69
2021/12/10 07:28:58;;;;;;;83.43;41.17;;;1.80;99.90;;;;;;5118076;28;20448;-69
2021/12/10 07:31:25;;;;;;;97.37;42.60;;;1.80;99.90;;;;;;5118409;28;20827;-69
2021/12/10 07:33:54;;;;;;;86.77;44.47;;;1.90;99.90;;;;;;5118501;28;20804;-69
2021/12/10 07:36:21;;;;;;;81.17;39.47;;;1.80;99.90;;;;;;5118148;28;20466;-69
2021/12/10 07:38:48;;;;;;;98.53;45.67;;;1.70;99.90;;;;;;5117904;27;20512;-69
2021/12/10 07:41:15;;;;;;;90.63;44.77;;;1.60;99.90;;;;;;5117853;28;20480;-68
2021/12/10 07:43:43;;;;;;;95.40;40.73;;;1.60;99.90;;;;;;5117297;28;20484;-69
2021/12/10 07:46:12;;;;;;;97.83;44.10;;;1.60;99.90;;;;;;5117958;28;20488;-68
2021/12/10 07:48:43;;;;;;;91.17;41.93;;;1.60;99.90;;;;;;5117646;28;20459;-68
2021/12/10 07:51:15;;;;;;;93.80;42.70;;;1.70;99.90;;;;;;5117800;28;20440;-69
2021/12/10 07:53:45;;;;;;;96.57;44.63;;;1.70;99.90;;;;;;5117429;28;20882;-69
2021/12/10 07:56:14;;;;;;;91.33;45.63;;;1.60;99.90;;;;;;5117346;28;20564;-69
2021/12/10 07:58:42;;;;;;;97.87;43.03;;;1.60;99.90;;;;;;5118065;28;20461;-69
2021/12/10 08:01:12;;;;;;;90.53;41.30;;;1.60;99.90;;;;;;5117665;28;20571;-69
2021/12/10 08:03:39;;;;;;;90.67;43.10;;;1.60;99.90;;;;;;5117565;28;20456;-69
2021/12/10 08:06:06;;;;;;;99.43;41.90;;;1.60;99.90;;;;;;5117545;28;20483;-69
2021/12/10 08:08:34;;;;;;;99.67;45.17;;;1.70;99.90;;;;;;5117569;28;20945;-69
2021/12/10 08:11:01;;;;;;;98.27;42.00;;;1.60;99.90;;;;;;5117030;28;20464;-70
2021/12/10 08:13:29;;;;;;;94.43;40.20;;;1.70;99.90;;;;;;5117319;28;20837;-69
2021/12/10 08:15:56;;;;;;;91.37;41.97;;;1.70;99.90;;;;;;5117908;28;20543;-69
2021/12/10 08:18:23;;;;;;;91.97;43.73;;;1.80;99.90;;;;;;5117379;28;20528;-69
2021/12/10 08:20:50;;;;;;;91.97;43.70;;;1.90;99.90;;;;;;5117015;28;20476;-68
2021/12/10 08:23:19;;;;;;;88.27;41.53;;;1.90;99.90;;;;;;5117467;28;20460;-69
2021/12/10 08:25:47;;;;;;;94.80;43.73;;;2.00;99.90;;;;;;5117220;28;20764;-69
2021/12/10 08:28:15;;;;;;;93.73;43.20;;;2.10;99.90;;;;;;5117398;28;20456;-69
2021/12/10 08:30:42;;;;;;;95.00;42.30;;;2.20;99.90;;;;;;5117177;28;20467;-69
2021/12/10 08:33:12;;;;;;;92.30;42.23;;;2.20;99.90;;;;;;5116951;28;20786;-69
2021/12/10 08:35:41;;;;;;;83.43;39.57;;;2.30;99.90;;;;;;5117553;28;20792;-69
2021/12/10 08:38:07;;;;;;;95.77;44.30;;;2.30;99.90;;;;;;5116884;28;20467;-68
2021/12/10 08:40:38;;;;;;;89.77;42.00;;;2.30;99.90;;;;;;5117211;28;20502;-69
2021/12/10 08:43:06;;;;;;;91.53;42.37;;;2.30;99.90;;;;;;5117188;28;20472;-69
2021/12/10 08:45:36;;;;;;;91.17;43.90;;;2.30;99.90;;;;;;5116842;28;20535;-69
2021/12/10 08:48:03;;;;;;;89.63;43.70;;;2.30;99.90;;;;;;5116579;28;20452;-69
2021/12/10 08:50:30;;;;;;;89.00;41.83;;;2.10;99.90;;;;;;5116845;28;20456;-68
2021/12/10 08:53:00;;;;;;;85.00;40.60;;;2.00;99.90;;;;;;5116853;28;20464;-70
2021/12/10 08:55:29;;;;;;;88.87;41.67;;;2.10;99.90;;;;;;5116518;28;20453;-69
2021/12/10 08:57:56;;;;;;;84.90;40.70;;;2.10;99.90;;;;;;5116540;28;20467;-68
2021/12/10 09:00:25;;;;;;;141.20;62.43;;;2.20;99.90;;;;;;5116083;28;20468;-69
2021/12/10 09:02:53;;;;;;;117.37;44.73;;;2.30;99.90;;;;;;5116612;28;20475;-69
2021/12/10 09:05:21;;;;;;;95.73;42.63;;;2.40;99.90;;;;;;5116556;28;20452;-69
2021/12/10 09:07:48;;;;;;;80.97;41.20;;;2.50;99.90;;;;;;5116683;28;20452;-69
2021/12/10 09:10:18;;;;;;;84.83;41.10;;;2.60;99.90;;;;;;5116272;28;20459;-69
2021/12/10 09:12:45;;;;;;;74.53;39.30;;;2.60;99.90;;;;;;5116250;28;20436;-69
2021/12/10 09:15:17;;;;;;;90.10;42.90;;;2.60;99.90;;;;;;5116623;28;20471;-69
2021/12/10 09:17:46;;;;;;;92.00;40.27;;;2.60;99.90;;;;;;5117033;28;20453;-69
2021/12/10 09:20:18;;;;;;;90.23;43.80;;;2.60;99.90;;;;;;5116540;28;20463;-69
2021/12/10 09:22:45;;;;;;;74.10;38.90;;;2.60;99.90;;;;;;5116729;28;20461;-68
2021/12/10 09:25:13;;;;;;;80.50;39.17;;;2.60;99.90;;;;;;5116313;28;20445;-69
2021/12/10 09:27:40;;;;;;;86.30;42.33;;;2.60;99.90;;;;;;5116823;28;20463;-69
2021/12/10 09:30:11;;;;;;;77.63;40.67;;;2.70;99.90;;;;;;5116583;28;20452;-69
2021/12/10 09:32:38;;;;;;;82.03;40.70;;;2.70;99.90;;;;;;5116368;28;20561;-69
2021/12/10 09:35:09;;;;;;;83.77;39.97;;;2.80;99.90;;;;;;5117352;28;20453;-69
2021/12/10 09:37:38;;;;;;;93.77;41.80;;;2.80;99.90;;;;;;5117539;28;20453;-70
2021/12/10 09:40:07;;;;;;;91.10;44.30;;;2.80;99.90;;;;;;5116703;28;20452;-69
2021/12/10 09:42:34;;;;;;;88.13;47.20;;;2.80;99.90;;;;;;5117278;28;20499;-70
2021/12/10 09:45:03;;;;;;;86.40;41.67;;;2.80;99.90;;;;;;5116577;28;20491;-70
2021/12/10 09:47:30;;;;;;;131.67;62.80;;;2.80;99.90;;;;;;5116300;28;20556;-69
2021/12/10 09:49:57;;;;;;;96.00;42.43;;;2.80;99.90;;;;;;5116518;28;20456;-68
2021/12/10 09:52:27;;;;;;;82.40;38.00;;;2.80;99.90;;;;;;5115893;28;20464;-69
2021/12/10 09:54:55;;;;;;;78.13;39.17;;;2.90;99.90;;;;;;5115594;28;20453;-69
2021/12/10 09:57:25;;;;;;;74.90;38.30;;;2.90;99.90;;;;;;5115516;28;20549;-69
2021/12/10 09:59:54;;;;;;;87.43;39.70;;;2.90;99.90;;;;;;5115456;28;20441;-69
2021/12/10 10:02:23;;;;;;;83.13;40.00;;;2.80;99.90;;;;;;5115291;28;20483;-69
2021/12/10 10:04:53;;;;;;;89.90;39.87;;;2.90;99.90;;;;;;5115599;28;20457;-69
2021/12/10 10:07:24;;;;;;;88.07;40.30;;;3.00;99.90;;;;;;5115287;28;20452;-69
2021/12/10 10:09:56;;;;;;;83.90;39.40;;;2.90;99.90;;;;;;5115301;28;20447;-70
2021/12/10 10:12:28;;;;;;;90.50;39.37;;;2.90;99.90;;;;;;5115097;28;20441;-69
2021/12/10 10:14:55;;;;;;;82.03;38.60;;;2.90;99.90;;;;;;5115011;28;20531;-68
2021/12/10 10:17:23;;;;;;;91.03;47.63;;;2.90;99.90;;;;;;5115088;28;20472;-68
2021/12/10 10:19:52;;;;;;;85.60;41.17;;;2.80;99.90;;;;;;5115131;28;20461;-69
2021/12/10 10:22:23;;;;;;;70.67;37.63;;;2.90;99.90;;;;;;5114816;28;20565;-67
2021/12/10 10:24:53;;;;;;;92.70;40.60;;;2.90;99.90;;;;;;5115194;28;20469;-68
2021/12/10 10:27:23;;;;;;;84.17;38.57;;;2.90;99.90;;;;;;5114693;28;20482;-68
2021/12/10 10:29:53;;;;;;;79.13;38.93;;;3.00;99.90;;;;;;5114732;28;20979;-70
2021/12/10 10:32:23;;;;;;;87.80;41.00;;;2.80;99.90;;;;;;5114864;28;20459;-68
2021/12/10 10:34:53;;;;;;;88.83;37.57;;;2.60;99.90;;;;;;5115609;28;20443;-70
2021/12/10 10:37:22;;;;;;;71.23;37.33;;;2.30;99.90;;;;;;5115351;28;20456;-68
2021/12/10 10:39:49;;;;;;;81.17;39.87;;;2.30;99.90;;;;;;5115542;28;20951;-68
2021/12/10 10:42:21;;;;;;;79.67;38.80;;;2.10;99.90;;;;;;5115042;28;20484;-68
2021/12/10 10:44:48;;;;;;;86.50;39.93;;;2.00;99.90;;;;;;5114313;28;20480;-69
2021/12/10 10:47:16;;;;;;;82.63;38.60;;;2.00;99.90;;;;;;5115003;28;20456;-70
2021/12/10 10:49:45;;;;;;;85.30;39.20;;;1.90;99.90;;;;;;5114542;28;20475;-69
2021/12/10 10:52:20;;;;;;;91.73;39.70;;;1.90;99.90;;;;;;5114841;28;20448;-69
2021/12/10 10:54:48;;;;;;;82.83;37.20;;;2.00;99.90;;;;;;5114854;28;20501;-69
2021/12/10 10:57:24;;;;;;;90.57;39.90;;;2.10;99.90;;;;;;5114903;28;20456;-69
2021/12/10 10:59:56;;;;;;;81.47;38.40;;;2.10;99.90;;;;;;5114833;28;20458;-68
2021/12/10 11:02:23;;;;;;;84.33;36.83;;;2.00;99.90;;;;;;5114464;28;20464;-69
2021/12/10 11:04:51;;;;;;;92.87;41.33;;;2.00;99.90;;;;;;5114226;28;20920;-68
2021/12/10 11:07:22;;;;;;;97.73;44.90;;;2.00;99.90;;;;;;5115141;28;20464;-69
2021/12/10 11:09:56;;;;;;;85.90;40.33;;;2.10;99.90;;;;;;5114627;28;20456;-69
2021/12/10 11:12:28;;;;;;;81.40;37.93;;;2.20;99.90;;;;;;5114979;28;20849;-70
2021/12/10 11:14:59;;;;;;;89.07;39.43;;;2.10;99.90;;;;;;5114759;28;20538;-69
2021/12/10 11:17:31;;;;;;;89.97;39.67;;;2.10;99.90;;;;;;5114739;28;20911;-69
2021/12/10 11:20:01;;;;;;;88.00;38.53;;;2.10;99.90;;;;;;5114782;28;20791;-69
2021/12/10 11:22:29;;;;;;;88.10;36.93;;;2.10;99.90;;;;;;5114826;28;20499;-70
2021/12/10 11:25:02;;;;;;;88.80;38.97;;;2.10;99.90;;;;;;5115047;28;20456;-68
2021/12/10 11:27:35;;;;;;;88.43;39.80;;;2.20;99.90;;;;;;5114957;28;20440;-69
2021/12/10 11:33:12;;;;;;;87.33;38.50;;;2.30;99.90;;;;;;5115681;28;20455;-67
2021/12/10 11:35:43;;;;;;;91.70;39.17;;;2.30;99.90;;;;;;5117977;28;20433;-68
2021/12/10 11:38:14;;;;;;;98.13;41.83;;;2.20;99.90;;;;;;5116145;28;20436;-68
2021/12/10 11:40:49;;;;;;;80.87;39.27;;;2.10;99.90;;;;;;5115623;28;20869;-67
2021/12/10 11:46:28;;;;;;;83.60;39.60;;;2.20;99.90;;;;;;5107632;28;20523;-68
2021/12/10 11:49:06;;;;;;;87.67;38.33;;;2.20;99.90;;;;;;5117689;28;20447;-67
2021/12/10 11:51:36;;;;;;;87.90;41.97;;;2.30;99.90;;;;;;5117696;28;20433;-66
2021/12/10 11:54:06;;;;;;;78.57;37.83;;;2.40;99.90;;;;;;5118134;28;20562;-68
2021/12/10 11:56:36;;;;;;;82.83;39.40;;;2.50;99.90;;;;;;5117923;28;20452;-68
2021/12/10 11:59:11;;;;;;;84.87;38.27;;;2.60;99.90;;;;;;5117576;28;20447;-67
2021/12/10 12:01:55;;;;;;;72.13;33.90;;;2.70;99.90;;;;;;5117581;27;20471;-68
2021/12/10 12:04:27;;;;;;;71.47;34.90;;;2.80;99.90;;;;;;5117954;28;20444;-68
2021/12/10 12:07:40;;;;;;;73.27;33.80;;;2.80;99.90;;;;;;5117455;28;20451;-70
2021/12/10 12:10:19;;;;;;;71.70;34.30;;;2.80;99.90;;;;;;5055142;28;20452;-70
2021/12/10 12:12:47;;;;;;;76.90;35.77;;;2.80;99.90;;;;;;5108286;28;20459;-68
2021/12/10 12:15:22;;;;;;;72.20;33.23;;;2.90;99.90;;;;;;5117430;28;20448;-69
2021/12/10 12:17:51;;;;;;;68.63;35.10;;;3.00;99.90;;;;;;5117522;28;20543;-68
2021/12/10 12:20:31;;;;;;;73.07;33.97;;;3.00;99.90;;;;;;5117815;28;20456;-71
2021/12/10 12:25:47;;;;;;;72.77;32.83;;;2.90;99.90;;;;;;5117498;28;20431;-69
2021/12/10 12:28:17;;;;;;;68.67;32.70;;;2.90;99.90;;;;;;5117240;28;20473;-69
2021/12/10 12:30:57;;;;;;;66.63;32.07;;;3.00;99.90;;;;;;5117219;28;20966;-69
2021/12/10 12:33:27;;;;;;;63.73;33.17;;;3.10;99.90;;;;;;5117814;28;20473;-69
2021/12/10 12:35:56;;;;;;;56.90;31.37;;;3.20;99.90;;;;;;5118700;28;20479;-69
2021/12/10 12:38:27;;;;;;;74.10;31.37;;;3.30;99.90;;;;;;5118333;28;20457;-68
2021/12/10 12:41:16;;;;;;;62.43;31.03;;;3.30;99.90;;;;;;5117687;28;20618;-68
2021/12/10 12:43:46;;;;;;;164.87;79.03;;;3.40;99.90;;;;;;5117102;28;20484;-69
2021/12/10 12:46:15;;;;;;;85.83;42.70;;;3.40;99.90;;;;;;5117435;28;20528;-67
2021/12/10 12:48:58;;;;;;;76.53;33.60;;;3.30;99.90;;;;;;5117297;28;20788;-68
2021/12/10 12:51:25;;;;;;;70.27;33.70;;;3.30;99.90;;;;;;5117080;28;20509;-68
2021/12/10 12:53:54;;;;;;;75.03;33.40;;;3.40;99.90;;;;;;5116682;28;20456;-68
2021/12/10 12:56:23;;;;;;;60.60;31.77;;;3.40;99.90;;;;;;5115055;28;20453;-68
2021/12/10 12:58:54;;;;;;;63.93;32.17;;;3.50;99.90;;;;;;5116636;28;20899;-68
2021/12/10 13:01:26;;;;;;;63.70;32.73;;;3.50;99.90;;;;;;5116281;28;20888;-69
2021/12/10 13:03:56;;;;;;;56.00;29.33;;;3.60;99.90;;;;;;5116457;28;20465;-69